sensor_id;sensor_type;location;lat;lon;timestamp;pressure;altitude;pressure_sealevel;temperature;humidity
60583;BME280;46415;47.536;19.066;2023-07-22T00:00:41;-18688.94;;;16.96;100.00
60583;BME280;46415;47.536;19.066;2023-07-22T00:03:44;-18690.03;;;17.00;100.00
60583;BME280;46415;47.536;19.066;2023-07-22T00:06:46;-18688.78;;;16.95;100.00
60583;BME280;46415;47.536;19.066;2023-07-22T00:09:49;-18689.22;;;16.97;100.00
60583;BME280;46415;47.536;19.066;2023-07-22T00:12:52;-18690.84;;;17.03;100.00
60583;BME280;46415;47.536;19.066;2023-07-22T00:15:55;-18691.66;;;17.06;100.00
60583;BME280;46415;47.536;19.066;2023-07-22T00:18:57;-18693.44;;;17.12;100.00
60583;BME280;46415;47.536;19.066;2023-07-22T00:22:02;-18693.44;;;17.12;100.00
60583;BME280;46415;47.536;19.066;2023-07-22T00:25:11;-18694.25;;;17.16;100.00
60583;BME280;46415;47.536;19.066;2023-07-22T00:28:14;-18694.09;;;17.15;100.00
60583;BME280;46415;47.536;19.066;2023-07-22T00:31:17;-18691.94;;;17.07;100.00
60583;BME280;46415;47.536;19.066;2023-07-22T00:34:19;-18689.22;;;16.97;100.00
60583;BME280;46415;47.536;19.066;2023-07-22T00:37:22;-18688.94;;;16.96;100.00
60583;BME280;46415;47.536;19.066;2023-07-22T00:40:24;-18689.22;;;16.97;100.00
60583;BME280;46415;47.536;19.066;2023-07-22T00:43:27;-18688.78;;;16.95;100.00
60583;BME280;46415;47.536;19.066;2023-07-22T00:46:29;-18688.38;;;16.94;100.00
60583;BME280;46415;47.536;19.066;2023-07-22T00:49:32;-18688.66;;;16.95;100.00
60583;BME280;46415;47.536;19.066;2023-07-22T00:52:35;-18689.88;;;16.99;100.00
60583;BME280;46415;47.536;19.066;2023-07-22T00:55:39;-18689.75;;;16.99;100.00
60583;BME280;46415;47.536;19.066;2023-07-22T00:58:43;-18688.94;;;16.96;100.00
60583;BME280;46415;47.536;19.066;2023-07-22T01:01:45;-18690.03;;;17.00;100.00
60583;BME280;46415;47.536;19.066;2023-07-22T01:04:48;-18689.47;;;16.98;100.00
60583;BME280;46415;47.536;19.066;2023-07-22T01:07:51;-18690.03;;;17.00;100.00
60583;BME280;46415;47.536;19.066;2023-07-22T01:10:54;-18689.06;;;16.96;100.00
60583;BME280;46415;47.536;19.066;2023-07-22T01:13:59;-18687.16;;;16.89;100.00
60583;BME280;46415;47.536;19.066;2023-07-22T01:17:06;-18686.22;;;16.86;100.00
60583;BME280;46415;47.536;19.066;2023-07-22T01:20:10;-18685.41;;;16.83;100.00
60583;BME280;46415;47.536;19.066;2023-07-22T01:23:13;-18687.03;;;16.89;100.00
60583;BME280;46415;47.536;19.066;2023-07-22T01:26:15;-18687.56;;;16.91;100.00
60583;BME280;46415;47.536;19.066;2023-07-22T01:29:18;-18688.38;;;16.94;100.00
60583;BME280;46415;47.536;19.066;2023-07-22T01:32:20;-18689.22;;;16.97;100.00
60583;BME280;46415;47.536;19.066;2023-07-22T01:35:24;-18688.66;;;16.95;100.00
60583;BME280;46415;47.536;19.066;2023-07-22T01:38:28;-18688.78;;;16.95;100.00
60583;BME280;46415;47.536;19.066;2023-07-22T01:41:32;-18689.75;;;16.99;100.00
60583;BME280;46415;47.536;19.066;2023-07-22T01:44:35;-18690.03;;;17.00;100.00
60583;BME280;46415;47.536;19.066;2023-07-22T01:47:38;-18690.03;;;17.00;100.00
60583;BME280;46415;47.536;19.066;2023-07-22T01:50:40;-18688.66;;;16.95;100.00
60583;BME280;46415;47.536;19.066;2023-07-22T01:53:43;-18686.88;;;16.88;100.00
60583;BME280;46415;47.536;19.066;2023-07-22T01:56:46;-18686.75;;;16.88;100.00
60583;BME280;46415;47.536;19.066;2023-07-22T01:59:49;-18688.38;;;16.94;100.00
60583;BME280;46415;47.536;19.066;2023-07-22T02:02:51;-18688.66;;;16.95;100.00
60583;BME280;46415;47.536;19.066;2023-07-22T02:06:00;-18688.78;;;16.95;100.00
60583;BME280;46415;47.536;19.066;2023-07-22T02:09:03;-18688.66;;;16.95;100.00
60583;BME280;46415;47.536;19.066;2023-07-22T02:12:11;-18687.16;;;16.89;100.00
60583;BME280;46415;47.536;19.066;2023-07-22T02:15:13;-18687.31;;;16.90;100.00
60583;BME280;46415;47.536;19.066;2023-07-22T02:18:16;-18687.84;;;16.92;100.00
60583;BME280;46415;47.536;19.066;2023-07-22T02:21:18;-18685.53;;;16.83;100.00
60583;BME280;46415;47.536;19.066;2023-07-22T02:24:21;-18682.94;;;16.73;100.00
60583;BME280;46415;47.536;19.066;2023-07-22T02:27:24;-18680.75;;;16.65;100.00
60583;BME280;46415;47.536;19.066;2023-07-22T02:30:26;-18679.41;;;16.60;100.00
60583;BME280;46415;47.536;19.066;2023-07-22T02:33:29;-18679.94;;;16.62;100.00
60583;BME280;46415;47.536;19.066;2023-07-22T02:36:31;-18680.75;;;16.65;100.00
60583;BME280;46415;47.536;19.066;2023-07-22T02:39:34;-18680.75;;;16.65;100.00
60583;BME280;46415;47.536;19.066;2023-07-22T02:42:37;-18680.75;;;16.65;100.00
60583;BME280;46415;47.536;19.066;2023-07-22T02:45:39;-18680.34;;;16.64;100.00
60583;BME280;46415;47.536;19.066;2023-07-22T02:48:42;-18680.63;;;16.65;100.00
60583;BME280;46415;47.536;19.066;2023-07-22T02:51:44;-18678.84;;;16.58;100.00
60583;BME280;46415;47.536;19.066;2023-07-22T02:58:09;-18674.91;;;16.44;100.00
60583;BME280;46415;47.536;19.066;2023-07-22T03:01:11;-18676.13;;;16.48;100.00
60583;BME280;46415;47.536;19.066;2023-07-22T03:04:14;-18677.50;;;16.53;100.00
60583;BME280;46415;47.536;19.066;2023-07-22T03:07:16;-18678.84;;;16.58;100.00
60583;BME280;46415;47.536;19.066;2023-07-22T03:10:20;-18679.41;;;16.60;100.00
60583;BME280;46415;47.536;19.066;2023-07-22T03:13:22;-18679.25;;;16.60;100.00
60583;BME280;46415;47.536;19.066;2023-07-22T03:16:25;-18679.53;;;16.61;100.00
60583;BME280;46415;47.536;19.066;2023-07-22T03:19:28;-18679.94;;;16.62;100.00
60583;BME280;46415;47.536;19.066;2023-07-22T03:22:30;-18679.81;;;16.62;100.00
60583;BME280;46415;47.536;19.066;2023-07-22T03:25:34;-18680.22;;;16.63;100.00
60583;BME280;46415;47.536;19.066;2023-07-22T03:28:36;-18681.72;;;16.69;100.00
60583;BME280;46415;47.536;19.066;2023-07-22T03:31:39;-18683.34;;;16.75;100.00
60583;BME280;46415;47.536;19.066;2023-07-22T03:34:41;-18685.53;;;16.83;100.00
60583;BME280;46415;47.536;19.066;2023-07-22T03:37:44;-18689.22;;;16.97;100.00
60583;BME280;46415;47.536;19.066;2023-07-22T03:40:46;-18690.84;;;17.03;100.00
60583;BME280;46415;47.536;19.066;2023-07-22T03:43:50;-18691.25;;;17.04;100.00
60583;BME280;46415;47.536;19.066;2023-07-22T03:46:52;-18692.34;;;17.08;100.00
60583;BME280;46415;47.536;19.066;2023-07-22T03:49:55;-18693.44;;;17.12;100.00
60583;BME280;46415;47.536;19.066;2023-07-22T03:52:57;-18694.38;;;17.16;100.00
60583;BME280;46415;47.536;19.066;2023-07-22T03:56:00;-18695.34;;;17.20;100.00
60583;BME280;46415;47.536;19.066;2023-07-22T03:59:02;-18696.16;;;17.23;100.00
60583;BME280;46415;47.536;19.066;2023-07-22T04:02:05;-18696.00;;;17.22;100.00
60583;BME280;46415;47.536;19.066;2023-07-22T04:05:08;-18697.78;;;17.29;100.00
60583;BME280;46415;47.536;19.066;2023-07-22T04:08:10;-18698.87;;;17.33;100.00
60583;BME280;46415;47.536;19.066;2023-07-22T04:11:13;-18701.31;;;17.42;100.00
60583;BME280;46415;47.536;19.066;2023-07-22T04:14:16;-18702.81;;;17.47;100.00
60583;BME280;46415;47.536;19.066;2023-07-22T04:17:19;-18702.81;;;17.47;100.00
60583;BME280;46415;47.536;19.066;2023-07-22T04:20:21;-18704.84;;;17.55;100.00
60583;BME280;46415;47.536;19.066;2023-07-22T04:23:26;-18708.41;;;17.68;100.00
60583;BME280;46415;47.536;19.066;2023-07-22T04:26:29;-18712.34;;;17.83;100.00
60583;BME280;46415;47.536;19.066;2023-07-22T04:29:32;-18716.56;;;17.99;100.00
60583;BME280;46415;47.536;19.066;2023-07-22T04:32:34;-18723.91;;;18.26;100.00
60583;BME280;46415;47.536;19.066;2023-07-22T04:35:38;-18727.72;;;18.40;100.00
60583;BME280;46415;47.536;19.066;2023-07-22T04:38:40;-18730.72;;;18.51;100.00
60583;BME280;46415;47.536;19.066;2023-07-22T04:41:43;-18735.59;;;18.69;100.00
60583;BME280;46415;47.536;19.066;2023-07-22T04:44:45;-18740.22;;;18.87;100.00
60583;BME280;46415;47.536;19.066;2023-07-22T04:47:48;-18745.53;;;19.06;100.00
60583;BME280;46415;47.536;19.066;2023-07-22T04:50:51;-18749.34;;;19.21;100.00
60583;BME280;46415;47.536;19.066;2023-07-22T04:53:54;-18751.25;;;19.28;100.00
60583;BME280;46415;47.536;19.066;2023-07-22T04:56:56;-18754.50;;;19.40;100.00
60583;BME280;46415;47.536;19.066;2023-07-22T05:00:02;-18752.88;;;19.34;100.00
60583;BME280;46415;47.536;19.066;2023-07-22T05:03:06;-18752.88;;;19.34;100.00
60583;BME280;46415;47.536;19.066;2023-07-22T05:06:09;-18750.16;;;19.24;100.00
60583;BME280;46415;47.536;19.066;2023-07-22T05:09:11;-18746.22;;;19.09;100.00
60583;BME280;46415;47.536;19.066;2023-07-22T05:12:14;-18745.81;;;19.07;100.00
60583;BME280;46415;47.536;19.066;2023-07-22T05:15:17;-18749.19;;;19.20;100.00
60583;BME280;46415;47.536;19.066;2023-07-22T05:18:19;-18752.31;;;19.32;100.00
60583;BME280;46415;47.536;19.066;2023-07-22T05:21:22;-18753.94;;;19.38;100.00
60583;BME280;46415;47.536;19.066;2023-07-22T05:24:24;-18755.84;;;19.45;100.00
60583;BME280;46415;47.536;19.066;2023-07-22T05:27:27;-18756.94;;;19.49;100.00
60583;BME280;46415;47.536;19.066;2023-07-22T05:30:29;-18757.75;;;19.52;100.00
60583;BME280;46415;47.536;19.066;2023-07-22T05:33:37;-18762.50;;;19.70;100.00
60583;BME280;46415;47.536;19.066;2023-07-22T05:36:40;-18764.28;;;19.76;100.00
60583;BME280;46415;47.536;19.066;2023-07-22T05:39:42;-18765.91;;;19.82;100.00
60583;BME280;46415;47.536;19.066;2023-07-22T05:42:45;-18767.69;;;19.89;100.00
60583;BME280;46415;47.536;19.066;2023-07-22T05:45:47;-18772.16;;;20.06;100.00
60583;BME280;46415;47.536;19.066;2023-07-22T05:48:50;-18771.34;;;20.03;100.00
60583;BME280;46415;47.536;19.066;2023-07-22T05:51:52;-18776.09;;;20.20;100.00
60583;BME280;46415;47.536;19.066;2023-07-22T05:54:55;-18774.31;;;20.14;100.00
60583;BME280;46415;47.536;19.066;2023-07-22T05:57:58;-18775.97;;;20.20;100.00
60583;BME280;46415;47.536;19.066;2023-07-22T06:01:01;-18775.13;;;20.17;100.00
60583;BME280;46415;47.536;19.066;2023-07-22T06:04:04;-18771.06;;;20.02;100.00
60583;BME280;46415;47.536;19.066;2023-07-22T06:07:07;-18778.66;;;20.30;100.00
60583;BME280;46415;47.536;19.066;2023-07-22T06:10:09;-18773.91;;;20.12;100.00
60583;BME280;46415;47.536;19.066;2023-07-22T06:13:12;-18777.72;;;20.26;100.00
60583;BME280;46415;47.536;19.066;2023-07-22T06:16:15;-18777.59;;;20.26;100.00
60583;BME280;46415;47.536;19.066;2023-07-22T06:19:17;-18778.41;;;20.29;100.00
60583;BME280;46415;47.536;19.066;2023-07-22T06:22:20;-18777.59;;;20.26;100.00
60583;BME280;46415;47.536;19.066;2023-07-22T06:25:23;-18779.50;;;20.33;100.00
60583;BME280;46415;47.536;19.066;2023-07-22T06:28:25;-18781.25;;;20.40;100.00
60583;BME280;46415;47.536;19.066;2023-07-22T06:31:28;-18786.81;;;20.60;100.00
60583;BME280;46415;47.536;19.066;2023-07-22T06:34:33;-18785.59;;;20.56;100.00
60583;BME280;46415;47.536;19.066;2023-07-22T06:37:35;-18783.56;;;20.48;100.00
60583;BME280;46415;47.536;19.066;2023-07-22T06:40:38;-18789.25;;;20.69;100.00
60583;BME280;46415;47.536;19.066;2023-07-22T06:43:40;-18791.56;;;20.78;100.00
60583;BME280;46415;47.536;19.066;2023-07-22T06:46:43;-18792.25;;;20.81;100.00
60583;BME280;46415;47.536;19.066;2023-07-22T06:49:46;-18793.88;;;20.87;100.00
60583;BME280;46415;47.536;19.066;2023-07-22T06:52:49;-18797.13;;;20.99;100.00
60583;BME280;46415;47.536;19.066;2023-07-22T06:55:52;-18801.88;;;21.16;100.00
60583;BME280;46415;47.536;19.066;2023-07-22T06:58:55;-18807.44;;;21.37;100.00
60583;BME280;46415;47.536;19.066;2023-07-22T07:01:57;-18809.88;;;21.46;100.00
60583;BME280;46415;47.536;19.066;2023-07-22T07:05:00;-18810.56;;;21.49;100.00
60583;BME280;46415;47.536;19.066;2023-07-22T07:08:02;-18807.56;;;21.38;100.00
60583;BME280;46415;47.536;19.066;2023-07-22T07:11:06;-18809.06;;;21.43;100.00
60583;BME280;46415;47.536;19.066;2023-07-22T07:14:09;-18814.63;;;21.64;100.00
60583;BME280;46415;47.536;19.066;2023-07-22T07:17:11;-18818.56;;;21.79;100.00
60583;BME280;46415;47.536;19.066;2023-07-22T07:20:13;-18815.31;;;21.67;100.00
60583;BME280;46415;47.536;19.066;2023-07-22T07:23:16;-18816.38;;;21.71;100.00
60583;BME280;46415;47.536;19.066;2023-07-22T07:26:19;-18817.47;;;21.75;100.00
60583;BME280;46415;47.536;19.066;2023-07-22T07:29:22;-18817.34;;;21.74;100.00
60583;BME280;46415;47.536;19.066;2023-07-22T07:32:45;-18819.09;;;21.81;100.00
60583;BME280;46415;47.536;19.066;2023-07-22T07:35:47;-18819.50;;;21.82;100.00
60583;BME280;46415;47.536;19.066;2023-07-22T07:38:50;-18825.06;;;22.03;100.00
60583;BME280;46415;47.536;19.066;2023-07-22T07:41:55;-18830.34;;;22.23;100.00
60583;BME280;46415;47.536;19.066;2023-07-22T07:44:57;-18829.41;;;22.19;98.52
60583;BME280;46415;47.536;19.066;2023-07-22T07:48:00;-18831.28;;;22.26;97.30
60583;BME280;46415;47.536;19.066;2023-07-22T07:51:02;-18838.19;;;22.52;99.21
60583;BME280;46415;47.536;19.066;2023-07-22T07:54:05;-18837.66;;;22.50;95.05
60583;BME280;46415;47.536;19.066;2023-07-22T07:57:09;-18833.47;;;22.34;97.35
60583;BME280;46415;47.536;19.066;2023-07-22T08:00:12;-18835.09;;;22.40;99.00
60583;BME280;46415;47.536;19.066;2023-07-22T08:03:14;-18838.87;;;22.55;95.19
60583;BME280;46415;47.536;19.066;2023-07-22T08:06:17;-18844.44;;;22.75;94.87
60583;BME280;46415;47.536;19.066;2023-07-22T08:09:21;-18850.37;;;22.98;92.03
60583;BME280;46415;47.536;19.066;2023-07-22T08:12:24;-18856.22;;;23.19;91.33
60583;BME280;46415;47.536;19.066;2023-07-22T08:15:27;-18860.13;;;23.34;88.53
60583;BME280;46415;47.536;19.066;2023-07-22T08:18:30;-18858.66;;;23.29;90.18
60583;BME280;46415;47.536;19.066;2023-07-22T08:21:32;-18859.59;;;23.32;89.42
60583;BME280;46415;47.536;19.066;2023-07-22T08:24:35;-18859.88;;;23.33;90.76
60583;BME280;46415;47.536;19.066;2023-07-22T08:27:38;-18864.06;;;23.49;88.68
60583;BME280;46415;47.536;19.066;2023-07-22T08:30:40;-18863.78;;;23.48;87.59
60583;BME280;46415;47.536;19.066;2023-07-22T08:33:43;-18852.41;;;23.05;90.55
60583;BME280;46415;47.536;19.066;2023-07-22T08:36:45;-18849.19;;;22.93;89.22
60583;BME280;46415;47.536;19.066;2023-07-22T08:39:48;-18856.34;;;23.20;87.73
60583;BME280;46415;47.536;19.066;2023-07-22T08:42:50;-18863.25;;;23.46;87.34
60583;BME280;46415;47.536;19.066;2023-07-22T08:45:54;-18859.72;;;23.33;85.24
60583;BME280;46415;47.536;19.066;2023-07-22T08:48:56;-18861.91;;;23.41;84.64
60583;BME280;46415;47.536;19.066;2023-07-22T08:51:59;-18863.25;;;23.46;80.17
60583;BME280;46415;47.536;19.066;2023-07-22T08:55:01;-18868.94;;;23.67;79.16
60583;BME280;46415;47.536;19.066;2023-07-22T08:58:04;-18871.63;;;23.77;76.43
60583;BME280;46415;47.536;19.066;2023-07-22T09:01:07;-18873.00;;;23.82;78.42
60583;BME280;46415;47.536;19.066;2023-07-22T09:04:10;-18875.00;;;23.90;71.14
60583;BME280;46415;47.536;19.066;2023-07-22T09:07:13;-18885.84;;;24.30;73.00
60583;BME280;46415;47.536;19.066;2023-07-22T09:10:17;-18889.34;;;24.44;74.19
60583;BME280;46415;47.536;19.066;2023-07-22T09:13:19;-18892.19;;;24.54;72.11
60583;BME280;46415;47.536;19.066;2023-07-22T09:16:23;-18895.69;;;24.67;73.46
60583;BME280;46415;47.536;19.066;2023-07-22T09:19:29;-18895.69;;;24.67;71.03
60583;BME280;46415;47.536;19.066;2023-07-22T09:22:32;-18894.50;;;24.63;69.02
60583;BME280;46415;47.536;19.066;2023-07-22T09:25:34;-18898.13;;;24.76;71.63
60583;BME280;46415;47.536;19.066;2023-07-22T09:28:53;-18890.16;;;24.47;70.23
60583;BME280;46415;47.536;19.066;2023-07-22T09:31:56;-18891.38;;;24.51;65.38
60583;BME280;46415;47.536;19.066;2023-07-22T09:34:59;-18901.53;;;24.89;68.01
60583;BME280;46415;47.536;19.066;2023-07-22T09:38:01;-18893.53;;;24.59;65.10
60583;BME280;46415;47.536;19.066;2023-07-22T09:41:04;-18904.63;;;25.01;67.56
60583;BME280;46415;47.536;19.066;2023-07-22T09:44:08;-18915.03;;;25.40;65.27
60583;BME280;46415;47.536;19.066;2023-07-22T09:47:11;-18917.31;;;25.48;60.51
60583;BME280;46415;47.536;19.066;2023-07-22T09:50:14;-18915.97;;;25.43;61.39
60583;BME280;46415;47.536;19.066;2023-07-22T09:53:18;-18909.75;;;25.20;63.21
60583;BME280;46415;47.536;19.066;2023-07-22T09:56:21;-18909.50;;;25.19;64.32
60583;BME280;46415;47.536;19.066;2023-07-22T09:59:23;-18915.44;;;25.41;61.96
60583;BME280;46415;47.536;19.066;2023-07-22T10:02:26;-18907.06;;;25.10;62.02
60583;BME280;46415;47.536;19.066;2023-07-22T10:05:29;-18894.09;;;24.61;62.51
60583;BME280;46415;47.536;19.066;2023-07-22T10:08:35;-18903.41;;;24.96;59.71
60583;BME280;46415;47.536;19.066;2023-07-22T10:11:40;-18919.47;;;25.56;58.67
60583;BME280;46415;47.536;19.066;2023-07-22T10:14:43;-18926.37;;;25.82;58.13
60583;BME280;46415;47.536;19.066;2023-07-22T10:17:47;-18930.53;;;25.98;57.14
60583;BME280;46415;47.536;19.066;2023-07-22T10:20:49;-18939.06;;;26.30;59.79
60583;BME280;46415;47.536;19.066;2023-07-22T10:23:52;-18932.03;;;26.04;54.76
60583;BME280;46415;47.536;19.066;2023-07-22T10:26:54;-18927.97;;;25.88;57.57
60583;BME280;46415;47.536;19.066;2023-07-22T10:29:58;-18937.84;;;26.25;54.15
60583;BME280;46415;47.536;19.066;2023-07-22T10:33:01;-18946.88;;;26.59;53.25
60583;BME280;46415;47.536;19.066;2023-07-22T10:36:07;-18950.78;;;26.74;53.01
60583;BME280;46415;47.536;19.066;2023-07-22T10:39:10;-18942.97;;;26.45;51.61
60583;BME280;46415;47.536;19.066;2023-07-22T10:42:27;-18942.56;;;26.43;51.29
60583;BME280;46415;47.536;19.066;2023-07-22T10:45:30;-18948.22;;;26.64;50.17
60583;BME280;46415;47.536;19.066;2023-07-22T10:48:34;-18957.13;;;26.98;50.14
60583;BME280;46415;47.536;19.066;2023-07-22T10:51:37;-18949.56;;;26.69;49.50
60583;BME280;46415;47.536;19.066;2023-07-22T10:54:40;-18935.41;;;26.16;49.79
60583;BME280;46415;47.536;19.066;2023-07-22T10:57:53;-18942.00;;;26.41;51.53
60583;BME280;46415;47.536;19.066;2023-07-22T11:00:56;-18957.94;;;27.01;49.36
60583;BME280;46415;47.536;19.066;2023-07-22T11:07:13;-18964.53;;;27.26;47.82
60583;BME280;46415;47.536;19.066;2023-07-22T11:10:17;-18967.50;;;27.37;47.52
60583;BME280;46415;47.536;19.066;2023-07-22T11:13:29;-18968.03;;;27.39;46.87
60583;BME280;46415;47.536;19.066;2023-07-22T11:16:32;-18971.81;;;27.53;46.75
60583;BME280;46415;47.536;19.066;2023-07-22T11:19:35;-18970.88;;;27.49;47.30
60583;BME280;46415;47.536;19.066;2023-07-22T11:22:40;-18967.09;;;27.35;46.66
60583;BME280;46415;47.536;19.066;2023-07-22T11:25:44;-18952.25;;;26.79;45.24
60583;BME280;46415;47.536;19.066;2023-07-22T11:28:47;-18935.28;;;26.16;46.63
60583;BME280;46415;47.536;19.066;2023-07-22T11:31:50;-18936.75;;;26.21;46.36
60583;BME280;46415;47.536;19.066;2023-07-22T11:34:53;-18934.72;;;26.14;47.08
60583;BME280;46415;47.536;19.066;2023-07-22T11:38:03;-18940.25;;;26.34;46.31
60583;BME280;46415;47.536;19.066;2023-07-22T11:41:05;-18951.84;;;26.78;47.10
60583;BME280;46415;47.536;19.066;2023-07-22T11:44:09;-18947.41;;;26.61;45.28
60583;BME280;46415;47.536;19.066;2023-07-22T11:47:12;-18942.00;;;26.41;48.04
60583;BME280;46415;47.536;19.066;2023-07-22T11:50:15;-18940.41;;;26.35;45.92
60583;BME280;46415;47.536;19.066;2023-07-22T11:53:17;-18951.84;;;26.78;45.86
60583;BME280;46415;47.536;19.066;2023-07-22T11:56:25;-18955.22;;;26.91;45.08
60583;BME280;46415;47.536;19.066;2023-07-22T11:59:37;-18962.91;;;27.19;44.51
60583;BME280;46415;47.536;19.066;2023-07-22T12:02:41;-18951.59;;;26.77;43.30
60583;BME280;46415;47.536;19.066;2023-07-22T12:05:43;-18949.56;;;26.69;43.47
60583;BME280;46415;47.536;19.066;2023-07-22T12:08:46;-18948.75;;;26.66;43.76
60583;BME280;46415;47.536;19.066;2023-07-22T12:11:56;-18952.66;;;26.81;42.13
60583;BME280;46415;47.536;19.066;2023-07-22T12:15:16;-18946.19;;;26.57;42.20
60583;BME280;46415;47.536;19.066;2023-07-22T12:18:19;-18943.09;;;26.45;42.08
60583;BME280;46415;47.536;19.066;2023-07-22T12:21:22;-18938.50;;;26.28;42.96
60583;BME280;46415;47.536;19.066;2023-07-22T12:24:24;-18948.09;;;26.64;41.36
60583;BME280;46415;47.536;19.066;2023-07-22T12:27:27;-18959.13;;;27.05;41.25
60583;BME280;46415;47.536;19.066;2023-07-22T12:30:29;-18960.50;;;27.10;41.11
60583;BME280;46415;47.536;19.066;2023-07-22T12:33:32;-18967.22;;;27.36;39.83
60583;BME280;46415;47.536;19.066;2023-07-22T12:36:34;-18971.81;;;27.53;40.13
60583;BME280;46415;47.536;19.066;2023-07-22T12:39:37;-18980.84;;;27.87;39.14
60583;BME280;46415;47.536;19.066;2023-07-22T12:42:40;-18980.44;;;27.85;39.21
60583;BME280;46415;47.536;19.066;2023-07-22T12:45:43;-18983.66;;;27.97;39.15
60583;BME280;46415;47.536;19.066;2023-07-22T12:48:46;-18986.75;;;28.09;40.27
60583;BME280;46415;47.536;19.066;2023-07-22T12:51:48;-18987.44;;;28.12;41.61
60583;BME280;46415;47.536;19.066;2023-07-22T12:54:51;-18981.25;;;27.88;38.17
60583;BME280;46415;47.536;19.066;2023-07-22T12:57:53;-18971.81;;;27.53;39.51
60583;BME280;46415;47.536;19.066;2023-07-22T13:00:56;-18955.09;;;26.90;40.51
60583;BME280;46415;47.536;19.066;2023-07-22T13:03:58;-18948.34;;;26.65;41.01
60583;BME280;46415;47.536;19.066;2023-07-22T13:07:01;-18937.03;;;26.22;41.29
60583;BME280;46415;47.536;19.066;2023-07-22T13:10:04;-18946.75;;;26.59;41.68
60583;BME280;46415;47.536;19.066;2023-07-22T13:13:10;-18954.03;;;26.86;40.57
60583;BME280;46415;47.536;19.066;2023-07-22T13:16:13;-18957.78;;;27.00;40.56
60583;BME280;46415;47.536;19.066;2023-07-22T13:19:15;-18965.22;;;27.28;41.36
60583;BME280;46415;47.536;19.066;2023-07-22T13:22:18;-18973.28;;;27.58;40.44
60583;BME280;46415;47.536;19.066;2023-07-22T13:25:20;-18968.31;;;27.40;39.21
60583;BME280;46415;47.536;19.066;2023-07-22T13:28:23;-18971.69;;;27.52;39.21
60583;BME280;46415;47.536;19.066;2023-07-22T13:31:25;-18977.75;;;27.75;38.15
60583;BME280;46415;47.536;19.066;2023-07-22T13:34:29;-18984.47;;;28.00;37.58
60583;BME280;46415;47.536;19.066;2023-07-22T13:37:31;-18987.69;;;28.13;36.18
60583;BME280;46415;47.536;19.066;2023-07-22T13:40:34;-18976.78;;;27.72;36.25
60583;BME280;46415;47.536;19.066;2023-07-22T13:43:36;-18967.34;;;27.36;37.20
60583;BME280;46415;47.536;19.066;2023-07-22T13:46:39;-18975.59;;;27.67;36.78
60583;BME280;46415;47.536;19.066;2023-07-22T13:49:42;-18982.03;;;27.91;37.57
60583;BME280;46415;47.536;19.066;2023-07-22T13:52:44;-18986.75;;;28.09;37.71
60583;BME280;46415;47.536;19.066;2023-07-22T13:55:47;-18983.38;;;27.96;37.18
60583;BME280;46415;47.536;19.066;2023-07-22T13:58:54;-18990.41;;;28.23;37.55
60583;BME280;46415;47.536;19.066;2023-07-22T14:01:57;-18982.03;;;27.91;36.36
60583;BME280;46415;47.536;19.066;2023-07-22T14:05:00;-18978.81;;;27.79;37.31
60583;BME280;46415;47.536;19.066;2023-07-22T14:08:02;-18985.69;;;28.05;36.41
60583;BME280;46415;47.536;19.066;2023-07-22T14:11:05;-18993.50;;;28.34;36.15
60583;BME280;46415;47.536;19.066;2023-07-22T14:14:07;-19003.84;;;28.73;35.38
60583;BME280;46415;47.536;19.066;2023-07-22T14:17:10;-19008.03;;;28.89;34.93
60583;BME280;46415;47.536;19.066;2023-07-22T14:20:12;-19009.78;;;28.96;34.43
60583;BME280;46415;47.536;19.066;2023-07-22T14:23:16;-19011.37;;;29.02;34.46
60583;BME280;46415;47.536;19.066;2023-07-22T14:26:18;-19011.25;;;29.01;34.36
60583;BME280;46415;47.536;19.066;2023-07-22T14:29:22;-19018.91;;;29.30;34.66
60583;BME280;46415;47.536;19.066;2023-07-22T14:32:27;-19026.97;;;29.60;32.98
60583;BME280;46415;47.536;19.066;2023-07-22T14:35:29;-19026.31;;;29.58;33.00
60583;BME280;46415;47.536;19.066;2023-07-22T14:38:34;-19014.34;;;29.13;32.99
60583;BME280;46415;47.536;19.066;2023-07-22T14:41:37;-19007.09;;;28.86;32.68
60583;BME280;46415;47.536;19.066;2023-07-22T14:44:40;-19022.00;;;29.42;33.92
60583;BME280;46415;47.536;19.066;2023-07-22T14:47:43;-19036.66;;;29.97;33.07
60583;BME280;46415;47.536;19.066;2023-07-22T14:50:45;-19040.69;;;30.12;32.68
60583;BME280;46415;47.536;19.066;2023-07-22T14:53:48;-19048.47;;;30.41;32.29
60583;BME280;46415;47.536;19.066;2023-07-22T14:56:50;-19051.16;;;30.52;30.51
60583;BME280;46415;47.536;19.066;2023-07-22T14:59:53;-19065.53;;;31.06;30.67
60583;BME280;46415;47.536;19.066;2023-07-22T15:02:55;-19067.28;;;31.12;30.23
60583;BME280;46415;47.536;19.066;2023-07-22T15:05:58;-19074.66;;;31.40;30.12
60583;BME280;46415;47.536;19.066;2023-07-22T15:09:01;-19080.16;;;31.61;29.97
60583;BME280;46415;47.536;19.066;2023-07-22T15:12:04;-19107.34;;;32.64;28.11
60583;BME280;46415;47.536;19.066;2023-07-22T15:15:07;-19119.25;;;33.09;27.48
60583;BME280;46415;47.536;19.066;2023-07-22T15:18:09;-19172.88;;;35.12;24.93
60583;BME280;46415;47.536;19.066;2023-07-22T15:21:12;-19224.06;;;37.06;23.00
60583;BME280;46415;47.536;19.066;2023-07-22T15:24:14;-19262.94;;;38.54;20.98
60583;BME280;46415;47.536;19.066;2023-07-22T15:27:17;-19277.66;;;39.10;20.42
60583;BME280;46415;47.536;19.066;2023-07-22T15:30:20;-19315.09;;;40.53;18.99
60583;BME280;46415;47.536;19.066;2023-07-22T15:33:22;-19308.72;;;40.29;19.43
60583;BME280;46415;47.536;19.066;2023-07-22T15:36:25;-19292.94;;;39.69;19.38
60583;BME280;46415;47.536;19.066;2023-07-22T15:39:27;-19277.94;;;39.11;19.54
60583;BME280;46415;47.536;19.066;2023-07-22T15:42:30;-19245.78;;;37.89;21.00
60583;BME280;46415;47.536;19.066;2023-07-22T15:45:32;-19235.38;;;37.49;21.19